This is the latest recevied weather packets stored in our database for station/object K1JO. If no packets are shown the sender has not sent any weather packets the latest 1 day(s).
| Time | Temp. | Humidity | Pressure | Rain* | Wind** | Luminosity | Snow |
|---|---|---|---|---|---|---|---|
| 1836274779 | 7.78° C | 74% | 1016.5 hPa | 0 mm | 0 m/s | 0 W/m² | - |
| 1836274477 | 6.67° C | 82% | 1016.5 hPa | 0 mm | 0.45 m/s, 176° | 0 W/m² | - |
| 1836274331 | 7.78° C | 77% | 1016.7 hPa | 0 mm | 0 m/s | 0 W/m² | - |
| 1836274174 | 6.67° C | 82% | 1016.5 hPa | 0 mm | 0 m/s | 0 W/m² | - |
| 1836273869 | 6.67° C | 82% | 1016.6 hPa | 0 mm | 0 m/s | 0 W/m² | - |
| 1778046767 | 11.11° C | 87% | 1004.5 hPa | 0 mm | 1.34 m/s, 334° | 0 W/m² | - |
| 1778046465 | 11.11° C | 87% | 1004.5 hPa | 0 mm | 0.89 m/s, 234° | 0 W/m² | - |
| 1778046161 | 11.67° C | 87% | 1004.8 hPa | 0 mm | 0.89 m/s, 106° | 0 W/m² | - |
| 1778045858 | 11.67° C | 87% | 1004.6 hPa | 0 mm | 0 m/s | 0 W/m² | - |
| 1778045557 | 11.67° C | 86% | 1004.3 hPa | 0 mm | 0.45 m/s, 197° | 0 W/m² | - |
| 1778045254 | 11.67° C | 86% | 1004.7 hPa | 0 mm | 0.89 m/s, 128° | 0 W/m² | - |
| 1778044953 | 11.67° C | 86% | 1004.6 hPa | 0 mm | 1.34 m/s, 126° | 0 W/m² | - |
| 1778044650 | 11.67° C | 86% | 1004.4 hPa | 0 mm | 0 m/s | 0 W/m² | - |
| 1778044346 | 11.67° C | 86% | 1004.4 hPa | 0 mm | 1.34 m/s, 265° | 0 W/m² | - |
| 1778044044 | 11.67° C | 86% | 1004.5 hPa | 0 mm | 0 m/s | 0 W/m² | - |
| 1778043741 | 12.22° C | 85% | 1004.4 hPa | 0 mm | 0 m/s | 0 W/m² | - |
| 1778043438 | 12.22° C | 85% | 1004.3 hPa | 0 mm | 2.24 m/s, 187° | 0 W/m² | - |
| 1778043134 | 12.22° C | 85% | 1004.3 hPa | 0 mm | 1.79 m/s, 215° | 0 W/m² | - |
| 1778042832 | 12.22° C | 85% | 1004.2 hPa | 0 mm | 0.89 m/s, 186° | 0 W/m² | - |
| 1778042529 | 12.22° C | 85% | 1004.1 hPa | 0 mm | 0.89 m/s, 230° | 0 W/m² | - |
| 1778042226 | 12.22° C | 84% | 1004.3 hPa | 0 mm | 0.89 m/s, 185° | 0 W/m² | - |
| 1778041924 | 12.22° C | 84% | 1004 hPa | 0 mm | 0 m/s | 0 W/m² | - |
| 1778041623 | 12.22° C | 84% | 1004.1 hPa | 0 mm | 0 m/s | 0 W/m² | - |
| 1778041321 | 12.22° C | 84% | 1004.2 hPa | 0 mm | 1.34 m/s, 293° | 0 W/m² | - |
| 1778041019 | 12.22° C | 84% | 1004 hPa | 0 mm | 0.89 m/s, 164° | 0 W/m² | - |
* Rain latest hour (hover to see other rain measurements)
** Current wind speed in m/s (hover to see current wind gust speed)